createdAt,value
2022-08-02T00:00:10.872Z,73.00
2022-08-02T00:02:37.829Z,73.20
2022-08-02T00:05:05.394Z,73.50
2022-08-02T00:07:35.277Z,73.90
2022-08-02T00:10:06.800Z,73.80
2022-08-02T00:12:33.702Z,74.20
2022-08-02T00:15:00.635Z,74.20
2022-08-02T00:17:27.491Z,74.90
2022-08-02T00:19:54.421Z,74.30
2022-08-02T00:22:21.288Z,74.50
2022-08-02T00:24:48.226Z,74.70
2022-08-02T00:27:15.098Z,74.90
2022-08-02T00:29:42.706Z,75.20
2022-08-02T00:32:21.820Z,75.70
2022-08-02T00:34:51.164Z,75.80
2022-08-02T00:37:19.774Z,75.80
2022-08-02T00:39:47.845Z,76.00
2022-08-02T00:42:17.168Z,76.40
2022-08-02T00:44:44.788Z,76.40
2022-08-02T00:47:13.942Z,76.30
2022-08-02T00:49:46.810Z,76.60
2022-08-02T00:52:15.095Z,76.60
2022-08-02T00:54:42.094Z,77.30
2022-08-02T00:57:08.978Z,77.20
2022-08-02T00:59:36.307Z,77.50
2022-08-02T01:02:03.303Z,77.60
2022-08-02T01:04:32.209Z,77.70
2022-08-02T01:07:13.295Z,77.70
2022-08-02T01:09:44.354Z,78.10
2022-08-02T01:12:12.063Z,78.50
2022-08-02T01:14:42.754Z,78.20
2022-08-02T01:17:23.834Z,78.30
2022-08-02T01:20:15.767Z,78.90
2022-08-02T01:23:02.915Z,79.80
2022-08-02T01:25:47.149Z,79.00
2022-08-02T01:28:30.018Z,80.30
2022-08-02T01:31:22.296Z,80.50
2022-08-02T01:33:56.833Z,81.00
2022-08-02T01:36:23.863Z,80.30
2022-08-02T01:38:51.370Z,79.80
2022-08-02T01:41:24.006Z,80.10
2022-08-02T01:43:53.400Z,80.60
2022-08-02T01:46:20.276Z,80.80
2022-08-02T01:48:47.850Z,80.50
2022-08-02T01:51:16.985Z,80.60
2022-08-02T01:53:45.390Z,80.70
2022-08-02T01:56:12.536Z,81.40
2022-08-02T01:58:39.563Z,81.40
2022-08-02T02:01:06.943Z,81.40
2022-08-02T02:03:33.956Z,81.10
2022-08-02T02:06:00.973Z,81.30
2022-08-02T02:08:36.530Z,82.00
2022-08-02T02:12:12.001Z,82.40
2022-08-02T02:13:50.515Z,82.60
2022-08-02T02:16:17.378Z,82.20
2022-08-02T02:18:44.533Z,81.90
2022-08-02T02:21:13.278Z,82.20
2022-08-02T02:23:40.708Z,82.20
2022-08-02T02:26:08.318Z,82.70
2022-08-02T02:28:37.596Z,82.90
2022-08-02T02:31:09.817Z,83.50
2022-08-02T02:33:58.646Z,83.60
2022-08-02T02:36:25.672Z,83.40
2022-08-02T02:38:52.619Z,83.60
2022-08-02T02:41:19.543Z,83.40
2022-08-02T02:43:46.551Z,83.60
2022-08-02T02:46:13.484Z,83.80
2022-08-02T02:48:40.420Z,83.60
2022-08-02T02:51:08.202Z,83.60
2022-08-02T02:54:33.296Z,83.70
2022-08-02T02:56:28.094Z,83.80
2022-08-02T02:58:54.965Z,84.40
2022-08-02T03:01:55.222Z,84.10
2022-08-02T03:04:15.130Z,84.40
2022-08-02T03:06:42.070Z,84.50
2022-08-02T03:09:09.576Z,84.60
2022-08-02T03:11:38.875Z,84.60
2022-08-02T03:14:08.517Z,84.90
2022-08-02T03:16:35.416Z,85.20
2022-08-02T03:19:05.770Z,85.20
2022-08-02T03:21:33.201Z,85.90
2022-08-02T03:24:00.236Z,85.90
2022-08-02T03:26:27.123Z,85.90
2022-08-02T03:28:54.024Z,85.60
2022-08-02T03:31:20.881Z,85.60
2022-08-02T03:33:47.870Z,85.90
2022-08-02T03:36:16.736Z,86.20
2022-08-02T03:38:44.362Z,86.30
2022-08-02T03:41:15.897Z,86.00
2022-08-02T03:43:44.251Z,86.70
2022-08-02T03:46:11.390Z,86.50
2022-08-02T03:48:38.269Z,86.90
2022-08-02T03:51:05.425Z,87.20
2022-08-02T03:53:32.318Z,88.20
2022-08-02T03:55:59.520Z,88.40
2022-08-02T03:58:26.468Z,89.30
2022-08-02T04:00:54.749Z,89.20
2022-08-02T04:03:21.763Z,90.00
2022-08-02T04:06:03.948Z,89.70
2022-08-02T04:08:35.965Z,90.00
2022-08-02T04:11:23.394Z,90.50
2022-08-02T04:13:50.276Z,90.90
2022-08-02T04:16:39.223Z,90.40
2022-08-02T04:19:07.462Z,91.90
2022-08-02T04:21:50.275Z,90.90
2022-08-02T04:24:32.158Z,91.10
2022-08-02T04:27:06.825Z,91.90
2022-08-02T04:29:47.153Z,91.20
2022-08-02T04:32:14.813Z,91.30
2022-08-02T04:34:47.441Z,91.80
2022-08-02T04:37:21.781Z,91.50
2022-08-02T04:39:48.662Z,92.10
2022-08-02T04:42:22.132Z,92.00
2022-08-02T04:44:49.097Z,93.20
2022-08-02T04:47:16.058Z,92.30
2022-08-02T04:49:43.029Z,92.80
2022-08-02T04:52:10.249Z,92.60
2022-08-02T04:54:37.524Z,92.70
2022-08-02T04:57:24.534Z,92.80
2022-08-02T04:59:54.577Z,93.00
2022-08-02T05:02:21.576Z,92.70
2022-08-02T05:04:48.521Z,92.70
2022-08-02T05:07:15.455Z,93.00
2022-08-02T05:09:42.450Z,92.80
2022-08-02T05:12:09.907Z,93.30
2022-08-02T05:14:37.121Z,92.80
2022-08-02T05:17:04.021Z,93.50
2022-08-02T05:19:31.013Z,93.20
2022-08-02T05:21:58.036Z,92.90
2022-08-02T05:24:25.011Z,93.10
2022-08-02T05:26:51.992Z,93.20
2022-08-02T05:29:19.112Z,93.30
2022-08-02T05:31:47.101Z,93.20
2022-08-02T05:34:14.046Z,93.20
2022-08-02T05:36:42.112Z,93.10
2022-08-02T05:39:11.495Z,93.10
2022-08-02T05:41:39.353Z,93.30
2022-08-02T05:44:06.201Z,93.30
2022-08-02T05:46:33.254Z,93.20
2022-08-02T05:49:00.610Z,93.40
2022-08-02T05:51:45.703Z,93.20
2022-08-02T05:54:50.371Z,94.00
2022-08-02T05:57:24.750Z,93.80
2022-08-02T05:59:58.959Z,93.20
2022-08-02T06:02:30.682Z,93.40
2022-08-02T06:05:11.270Z,92.90
2022-08-02T06:07:38.509Z,93.10
2022-08-02T06:10:06.196Z,92.80
2022-08-02T06:12:34.063Z,92.90
2022-08-02T06:15:01.003Z,92.70
2022-08-02T06:17:28.000Z,92.70
2022-08-02T06:19:57.966Z,92.50
2022-08-02T06:22:34.143Z,92.40
2022-08-02T06:25:04.002Z,92.40
2022-08-02T06:27:31.157Z,92.20
2022-08-02T06:29:58.029Z,92.60
2022-08-02T06:32:24.941Z,92.30
2022-08-02T06:34:54.579Z,92.10
2022-08-02T06:37:38.847Z,92.10
2022-08-02T06:40:25.246Z,92.50
2022-08-02T06:43:15.476Z,92.10
2022-08-02T06:45:42.399Z,91.90
2022-08-02T06:48:09.674Z,91.90
2022-08-02T06:50:38.846Z,91.80
2022-08-02T06:53:06.780Z,91.80
2022-08-02T06:55:43.511Z,91.80
2022-08-02T06:58:12.546Z,91.80
2022-08-02T07:00:39.834Z,91.70
2022-08-02T07:03:06.746Z,91.60
2022-08-02T07:05:34.408Z,91.60
2022-08-02T07:08:02.430Z,91.50
2022-08-02T07:10:29.349Z,91.30
2022-08-02T07:12:59.787Z,91.20
2022-08-02T07:15:27.096Z,91.10
2022-08-02T07:17:54.020Z,91.00
2022-08-02T07:20:20.946Z,91.00
2022-08-02T07:22:47.918Z,90.90
2022-08-02T07:25:15.037Z,90.80
2022-08-02T07:27:42.017Z,90.80
2022-08-02T07:30:09.677Z,90.60
2022-08-02T07:32:36.527Z,90.60
2022-08-02T07:35:06.948Z,90.50
2022-08-02T07:37:55.500Z,90.50
2022-08-02T07:40:22.495Z,90.40
2022-08-02T07:42:57.958Z,90.30
2022-08-02T07:45:27.299Z,90.10
2022-08-02T07:47:59.471Z,90.10
2022-08-02T07:50:28.296Z,90.00
2022-08-02T07:52:57.694Z,89.80
2022-08-02T07:55:31.105Z,89.60
2022-08-02T07:58:06.118Z,89.60
2022-08-02T08:00:38.338Z,89.60
2022-08-02T08:03:06.381Z,89.40
2022-08-02T08:05:33.618Z,89.20
2022-08-02T08:08:00.627Z,89.20
2022-08-02T08:10:27.702Z,88.70
2022-08-02T08:12:55.267Z,88.50
2022-08-02T08:15:22.306Z,88.40
2022-08-02T08:17:49.177Z,88.00
2022-08-02T08:20:16.217Z,87.80
2022-08-02T08:22:43.388Z,88.10
2022-08-02T08:25:10.355Z,87.90
2022-08-02T08:27:37.329Z,87.40
2022-08-02T08:30:04.705Z,87.20
2022-08-02T08:32:34.602Z,87.00
2022-08-02T08:35:03.717Z,87.10
2022-08-02T08:37:35.117Z,87.50
2022-08-02T08:40:03.272Z,86.80
2022-08-02T08:42:31.394Z,86.70
2022-08-02T08:44:59.163Z,86.60
2022-08-02T08:47:39.643Z,86.50
2022-08-02T08:50:18.821Z,85.50
2022-08-02T08:52:49.856Z,85.20
2022-08-02T08:55:16.859Z,85.00
2022-08-02T08:57:43.936Z,85.20
2022-08-02T09:00:16.539Z,85.90
2022-08-02T09:02:43.930Z,85.30
2022-08-02T09:05:11.636Z,85.00
2022-08-02T09:07:38.784Z,84.30
2022-08-02T09:10:44.244Z,84.70
2022-08-02T09:13:32.375Z,84.20
2022-08-02T09:16:12.120Z,84.60
2022-08-02T09:18:45.918Z,84.50
2022-08-02T09:21:14.865Z,84.50
2022-08-02T09:23:46.735Z,84.50
2022-08-02T09:26:20.644Z,84.50
2022-08-02T09:28:50.233Z,83.80
2022-08-02T09:31:18.361Z,84.10
2022-08-02T09:33:46.674Z,83.90
2022-08-02T09:36:14.361Z,84.20
2022-08-02T09:38:53.332Z,84.60
2022-08-02T09:41:22.079Z,84.50
2022-08-02T09:44:03.846Z,84.60
2022-08-02T09:46:40.062Z,84.70
2022-08-02T09:49:13.050Z,84.70
2022-08-02T09:51:49.138Z,84.50
2022-08-02T09:54:29.076Z,84.20
2022-08-02T09:56:57.838Z,83.90
2022-08-02T09:59:25.825Z,84.10
2022-08-02T10:02:01.812Z,84.20
2022-08-02T10:04:30.810Z,84.10
2022-08-02T10:06:59.605Z,83.90
2022-08-02T10:09:28.731Z,83.30
2022-08-02T10:11:55.894Z,83.20
2022-08-02T10:14:23.507Z,83.50
2022-08-02T10:16:50.934Z,83.70
2022-08-02T10:19:18.155Z,83.30
2022-08-02T10:22:06.598Z,83.00
2022-08-02T10:24:34.303Z,83.00
2022-08-02T10:27:01.236Z,82.70
2022-08-02T10:29:31.258Z,82.40
2022-08-02T10:32:22.555Z,81.90
2022-08-02T10:34:56.439Z,81.90
2022-08-02T10:37:28.616Z,81.50
2022-08-02T10:39:56.926Z,81.80
2022-08-02T10:42:43.324Z,82.10
2022-08-02T10:45:11.371Z,81.20
2022-08-02T10:47:38.339Z,81.70
2022-08-02T10:50:05.767Z,81.70
2022-08-02T10:52:33.164Z,81.40
2022-08-02T10:55:26.138Z,81.40
2022-08-02T10:58:17.143Z,80.30
2022-08-02T11:00:44.067Z,80.50
2022-08-02T11:03:29.499Z,81.10
2022-08-02T11:06:03.943Z,80.70
2022-08-02T11:08:30.988Z,80.80
2022-08-02T11:11:01.845Z,80.70
2022-08-02T11:13:30.143Z,80.90
2022-08-02T11:16:01.074Z,81.10
2022-08-02T11:18:57.015Z,81.20
2022-08-02T11:21:31.107Z,80.50
2022-08-02T11:24:28.312Z,80.50
2022-08-02T11:26:55.616Z,79.90
2022-08-02T11:29:22.819Z,80.10
2022-08-02T11:31:49.970Z,80.30
2022-08-02T11:34:28.475Z,80.30
2022-08-02T11:37:04.212Z,80.30
2022-08-02T11:39:31.107Z,80.40
2022-08-02T11:41:59.328Z,80.40
2022-08-02T11:44:27.192Z,80.30
2022-08-02T11:46:58.090Z,80.30
2022-08-02T11:49:25.149Z,80.20
2022-08-02T11:52:01.704Z,80.30
2022-08-02T11:54:30.403Z,80.10
2022-08-02T11:57:21.774Z,80.10
2022-08-02T11:59:50.156Z,79.60
2022-08-02T12:02:17.474Z,80.20
2022-08-02T12:04:58.087Z,80.30
2022-08-02T12:07:45.893Z,79.60
2022-08-02T12:10:19.074Z,79.30
2022-08-02T12:12:59.552Z,79.40
2022-08-02T12:15:46.686Z,78.70
2022-08-02T12:18:41.634Z,78.70
2022-08-02T12:21:25.919Z,79.50
2022-08-02T12:23:58.864Z,79.40
2022-08-02T12:26:27.789Z,79.80
2022-08-02T12:28:58.380Z,79.80
2022-08-02T12:31:57.542Z,79.70
2022-08-02T12:34:31.272Z,79.40
2022-08-02T12:37:05.420Z,79.60
2022-08-02T12:39:43.123Z,79.00
2022-08-02T12:42:12.135Z,78.50
2022-08-02T12:44:51.991Z,78.70
2022-08-02T12:47:19.071Z,78.40
2022-08-02T12:50:21.735Z,78.50
2022-08-02T12:52:49.329Z,77.80
2022-08-02T12:55:20.445Z,78.10
2022-08-02T12:58:03.906Z,77.40
2022-08-02T13:00:33.368Z,77.00
2022-08-02T13:03:00.403Z,77.70
2022-08-02T13:05:29.156Z,77.10
2022-08-02T13:08:16.748Z,76.70
2022-08-02T13:10:43.871Z,77.30
2022-08-02T13:13:11.165Z,77.20
2022-08-02T13:15:49.297Z,77.30
2022-08-02T13:18:18.486Z,77.30
2022-08-02T13:20:45.964Z,77.10
2022-08-02T13:23:21.525Z,76.90
2022-08-02T13:25:52.397Z,76.90
2022-08-02T13:28:20.080Z,76.90
2022-08-02T13:30:47.771Z,76.60
2022-08-02T13:33:14.806Z,76.60
2022-08-02T13:35:42.407Z,76.70
2022-08-02T13:38:09.667Z,76.60
2022-08-02T13:41:06.396Z,76.80
2022-08-02T13:43:52.659Z,76.30
2022-08-02T13:46:29.116Z,76.40
2022-08-02T13:48:56.944Z,76.40
2022-08-02T13:51:23.914Z,76.30
2022-08-02T13:53:50.869Z,76.00
2022-08-02T13:56:17.759Z,76.20
2022-08-02T13:58:44.870Z,76.30
2022-08-02T14:01:11.861Z,76.20
2022-08-02T14:04:05.849Z,76.20
2022-08-02T14:06:26.176Z,75.70
2022-08-02T14:08:53.041Z,75.90
2022-08-02T14:11:20.077Z,75.70
2022-08-02T14:13:47.131Z,75.30
2022-08-02T14:16:14.031Z,75.40
2022-08-02T14:18:40.948Z,74.50
2022-08-02T14:21:07.900Z,75.00
2022-08-02T14:23:50.621Z,74.80
2022-08-02T14:26:27.612Z,74.60
2022-08-02T14:28:55.470Z,75.10
2022-08-02T14:31:22.416Z,75.20
2022-08-02T14:33:49.311Z,75.10
2022-08-02T14:36:16.263Z,74.70
2022-08-02T14:38:55.364Z,74.40
2022-08-02T14:41:22.545Z,74.80
2022-08-02T14:44:04.750Z,75.10
2022-08-02T14:46:32.560Z,75.10
2022-08-02T14:49:03.815Z,75.20
2022-08-02T14:51:31.721Z,75.40
2022-08-02T14:54:02.805Z,75.30
2022-08-02T14:56:30.617Z,75.20
2022-08-02T14:58:57.559Z,74.50
2022-08-02T15:01:25.915Z,74.40
2022-08-02T15:03:53.566Z,74.90
2022-08-02T15:06:20.608Z,74.70
2022-08-02T15:08:47.460Z,74.50
2022-08-02T15:11:14.427Z,74.90
2022-08-02T15:13:42.703Z,74.90
2022-08-02T15:16:09.959Z,75.10
2022-08-02T15:18:37.184Z,75.30
2022-08-02T15:21:18.933Z,75.10
2022-08-02T15:23:51.218Z,75.00
2022-08-02T15:26:20.898Z,74.90
2022-08-02T15:28:55.412Z,74.40
2022-08-02T15:31:33.379Z,74.40
2022-08-02T15:34:02.521Z,74.30
2022-08-02T15:36:30.038Z,73.60
2022-08-02T15:38:57.735Z,73.80
2022-08-02T15:41:24.910Z,74.00
2022-08-02T15:44:01.215Z,74.10
2022-08-02T15:46:30.601Z,74.20
2022-08-02T15:48:58.136Z,74.10
2022-08-02T15:51:26.775Z,74.30
2022-08-02T15:53:56.931Z,74.10
2022-08-02T15:56:24.565Z,74.20
2022-08-02T15:58:53.999Z,74.50
2022-08-02T16:01:37.464Z,74.50
2022-08-02T16:04:07.025Z,73.90
2022-08-02T16:06:35.088Z,74.00
2022-08-02T16:09:02.265Z,74.00
2022-08-02T16:11:29.416Z,74.30
2022-08-02T16:13:59.074Z,74.30
2022-08-02T16:16:33.565Z,74.10
2022-08-02T16:19:46.269Z,74.00
2022-08-02T16:21:48.753Z,74.00
2022-08-02T16:24:15.754Z,74.20
2022-08-02T16:26:44.594Z,74.00
2022-08-02T16:29:11.673Z,74.10
2022-08-02T16:31:42.623Z,73.80
2022-08-02T16:34:10.603Z,73.90
2022-08-02T16:36:37.712Z,73.80
2022-08-02T16:39:05.333Z,73.70
2022-08-02T16:41:52.162Z,73.10
2022-08-02T16:44:29.454Z,73.00
2022-08-02T16:47:01.844Z,73.00
2022-08-02T16:50:06.841Z,72.20
2022-08-02T16:52:19.098Z,72.50
2022-08-02T16:54:49.869Z,70.90
2022-08-02T16:57:19.861Z,71.60
2022-08-02T16:59:57.327Z,71.40
2022-08-02T17:02:25.691Z,71.40
2022-08-02T17:04:52.739Z,70.60
2022-08-02T17:08:16.421Z,71.20
2022-08-02T17:10:09.493Z,71.80
2022-08-02T17:12:37.381Z,71.70
2022-08-02T17:15:46.971Z,71.70
2022-08-02T17:17:51.875Z,71.40
2022-08-02T17:20:19.161Z,71.50
2022-08-02T17:22:46.181Z,71.50
2022-08-02T17:25:16.010Z,71.90
2022-08-02T17:27:44.285Z,72.20
2022-08-02T17:30:12.165Z,72.40
2022-08-02T17:32:39.313Z,72.80
2022-08-02T17:35:06.546Z,73.00
2022-08-02T17:37:41.652Z,73.10
2022-08-02T17:40:09.651Z,72.80
2022-08-02T17:42:36.738Z,72.90
2022-08-02T17:45:16.216Z,73.10
2022-08-02T17:48:04.799Z,73.20
2022-08-02T17:50:33.936Z,73.00
2022-08-02T17:53:01.678Z,72.70
2022-08-02T17:55:31.165Z,71.80
2022-08-02T18:00:45.569Z,71.00
2022-08-02T18:03:13.715Z,71.30
2022-08-02T18:05:53.448Z,71.10
2022-08-02T18:08:23.767Z,71.90
2022-08-02T18:10:53.399Z,72.20
2022-08-02T18:13:20.597Z,72.20
2022-08-02T18:15:47.908Z,72.80
2022-08-02T18:18:16.949Z,73.00
2022-08-02T18:20:46.291Z,72.90
2022-08-02T18:23:13.873Z,72.80
2022-08-02T18:25:45.648Z,72.80
2022-08-02T18:28:15.092Z,73.20
2022-08-02T18:30:42.904Z,73.70
2022-08-02T18:33:59.446Z,73.80
2022-08-02T18:35:59.599Z,73.90
2022-08-02T18:38:28.361Z,74.20
2022-08-02T18:40:57.629Z,74.80
2022-08-02T18:43:25.644Z,74.80
2022-08-02T18:46:07.437Z,75.40
2022-08-02T18:48:44.231Z,76.30
2022-08-02T18:51:14.434Z,75.40
2022-08-02T18:53:42.825Z,75.50
2022-08-02T18:56:19.395Z,76.20
2022-08-02T18:58:51.919Z,76.00
2022-08-02T19:01:31.562Z,76.70
2022-08-02T19:04:02.143Z,76.50
2022-08-02T19:06:29.671Z,76.60
2022-08-02T19:09:12.640Z,76.70
2022-08-02T19:11:48.426Z,76.70
2022-08-02T19:14:33.189Z,76.80
2022-08-02T19:17:00.505Z,76.70
2022-08-02T19:19:44.078Z,77.20
2022-08-02T19:22:27.086Z,77.50
2022-08-02T19:25:00.946Z,77.90
2022-08-02T19:27:32.523Z,78.00
2022-08-02T19:30:04.672Z,78.60
2022-08-02T19:32:41.591Z,78.70
2022-08-02T19:35:30.855Z,78.50
2022-08-02T19:38:06.515Z,78.90
2022-08-02T19:40:33.552Z,80.20
2022-08-02T19:44:25.010Z,80.30
2022-08-02T19:45:50.998Z,80.00
2022-08-02T19:48:24.079Z,80.70
2022-08-02T19:50:56.337Z,80.30
2022-08-02T19:53:28.849Z,80.60
2022-08-02T19:56:13.472Z,80.80
2022-08-02T19:58:53.553Z,82.10
2022-08-02T20:01:26.938Z,81.40
2022-08-02T20:04:03.740Z,82.20
2022-08-02T20:06:30.592Z,82.60
2022-08-02T20:08:59.208Z,82.20
2022-08-02T20:11:29.165Z,82.90
2022-08-02T20:14:05.194Z,83.40
2022-08-02T20:16:35.689Z,83.70
2022-08-02T20:19:05.493Z,82.90
2022-08-02T20:21:36.868Z,83.30
2022-08-02T20:24:07.598Z,83.10
2022-08-02T20:26:35.313Z,83.80
2022-08-02T20:29:05.883Z,83.00
2022-08-02T20:31:35.580Z,83.20
2022-08-02T20:34:02.675Z,83.70
2022-08-02T20:36:29.630Z,83.40
2022-08-02T20:38:56.614Z,84.60
2022-08-02T20:41:23.819Z,84.10
2022-08-02T20:44:04.477Z,84.00
2022-08-02T20:46:43.189Z,84.20
2022-08-02T20:49:18.865Z,84.80
2022-08-02T20:51:52.216Z,84.40
2022-08-02T20:54:20.897Z,85.10
2022-08-02T20:56:50.658Z,84.80
2022-08-02T20:59:18.030Z,84.80
2022-08-02T21:01:56.766Z,84.60
2022-08-02T21:04:25.095Z,85.30
2022-08-02T21:06:52.130Z,85.50
2022-08-02T21:09:19.028Z,85.50
2022-08-02T21:12:00.038Z,85.30
2022-08-02T21:14:26.922Z,85.40
2022-08-02T21:16:54.398Z,85.30
2022-08-02T21:19:21.738Z,85.60
2022-08-02T21:21:48.710Z,85.90
2022-08-02T21:24:16.261Z,85.40
2022-08-02T21:26:48.637Z,86.00
2022-08-02T21:29:15.753Z,85.70
2022-08-02T21:31:42.589Z,86.00
2022-08-02T21:34:22.355Z,86.30
2022-08-02T21:36:57.508Z,86.20
2022-08-02T21:39:24.575Z,86.20
2022-08-02T21:41:51.492Z,86.30
2022-08-02T21:44:19.529Z,86.40
2022-08-02T21:46:48.859Z,86.20
2022-08-02T21:49:16.948Z,86.00
2022-08-02T21:51:49.166Z,86.20
2022-08-02T21:54:20.403Z,86.40
2022-08-02T21:56:52.735Z,86.80
2022-08-02T21:59:25.622Z,87.50
2022-08-02T22:01:57.916Z,87.80
2022-08-02T22:04:26.725Z,87.30
2022-08-02T22:06:54.902Z,87.30
2022-08-02T22:09:43.374Z,87.50
2022-08-02T22:12:12.655Z,87.70
2022-08-02T22:14:49.428Z,87.90
2022-08-02T22:17:51.517Z,88.20
2022-08-02T22:20:12.261Z,88.10
2022-08-02T22:22:39.733Z,88.40
2022-08-02T22:25:10.202Z,88.80
2022-08-02T22:28:35.302Z,88.60
2022-08-02T22:30:41.117Z,89.10
2022-08-02T22:33:33.065Z,88.50
2022-08-02T22:36:01.091Z,89.10
2022-08-02T22:38:28.911Z,88.70
2022-08-02T22:40:55.890Z,88.90
2022-08-02T22:43:23.509Z,89.10
2022-08-02T22:45:50.985Z,89.00
2022-08-02T22:48:17.945Z,89.00
2022-08-02T22:50:44.867Z,89.00
2022-08-02T22:53:12.361Z,89.30
2022-08-02T22:55:41.762Z,89.60
2022-08-02T22:58:09.377Z,89.30
2022-08-02T22:58:41.286Z,72.00
2022-08-02T23:00:36.290Z,89.80
2022-08-02T23:03:06.782Z,89.30
2022-08-02T23:05:34.152Z,89.30
2022-08-02T23:08:01.208Z,89.40
2022-08-02T23:10:28.210Z,89.80
2022-08-02T23:12:58.919Z,90.20
2022-08-02T23:15:26.438Z,90.00
2022-08-02T23:18:12.768Z,90.00
2022-08-02T23:20:40.990Z,90.20
2022-08-02T23:23:11.593Z,90.10
2022-08-02T23:25:38.857Z,90.20
2022-08-02T23:28:05.827Z,90.30
2022-08-02T23:30:32.753Z,90.40
2022-08-02T23:32:59.639Z,90.40
2022-08-02T23:35:26.579Z,90.40
2022-08-02T23:37:59.943Z,90.40
2022-08-02T23:40:39.844Z,90.50
2022-08-02T23:43:14.271Z,90.70
2022-08-02T23:45:45.950Z,90.80
2022-08-02T23:48:13.018Z,90.90
2022-08-02T23:50:39.899Z,90.80
2022-08-02T23:53:06.783Z,90.80
2022-08-02T23:55:33.648Z,90.80
2022-08-02T23:58:00.556Z,90.90
